Time;durP1;ratioP1;P1;durP2;ratioP2;P2;SDS_P1;SDS_P2;PMS_P1;PMS_P2;Temp;Humidity;BMP_temperature;BMP_pressure;BME280_temperature;BME280_humidity;BME280_pressure;Samples;Min_cycle;Max_cycle;Signal;HPM_P1;HPM_P2
2022/05/12 00:00:49;;;;;;;11.02;3.22;;;;;;;15.32;100.00;101009.34;4959274;28;20038;-79
2022/05/12 00:03:16;;;;;;;12.57;3.88;;;;;;;15.32;100.00;101006.56;4995031;28;20037;-80
2022/05/12 00:05:42;;;;;;;8.25;3.05;;;;;;;15.27;100.00;101018.06;4992920;28;20074;-79
2022/05/12 00:08:08;;;;;;;10.38;2.10;;;;;;;14.94;100.00;101017.50;4975756;28;20113;-78
2022/05/12 00:10:34;;;;;;;8.68;2.30;;;;;;;14.84;100.00;101033.19;4976596;28;20042;-80
2022/05/12 00:12:59;;;;;;;5.32;1.60;;;;;;;14.66;100.00;101033.91;4982539;28;20030;-79
2022/05/12 00:15:28;;;;;;;8.45;1.85;;;;;;;14.68;100.00;101028.25;4995851;28;20113;-79
2022/05/12 00:17:54;;;;;;;7.75;1.95;;;;;;;14.56;100.00;101019.22;4992783;28;20138;-79
2022/05/12 00:20:22;;;;;;;12.50;1.88;;;;;;;14.48;100.00;101044.72;4997010;28;20062;-79
2022/05/12 00:22:48;;;;;;;6.72;1.70;;;;;;;14.30;100.00;101046.44;5003062;28;20037;-79
2022/05/12 00:25:21;;;;;;;8.77;2.13;;;;;;;14.24;100.00;101035.97;4989975;28;20055;-80
2022/05/12 00:27:47;;;;;;;9.38;2.13;;;;;;;14.32;100.00;101047.16;5005609;28;20026;-81
2022/05/12 00:30:13;;;;;;;8.43;1.80;;;;;;;14.37;100.00;101046.75;4994661;28;20494;-80
2022/05/12 00:32:40;;;;;;;7.18;1.80;;;;;;;14.23;100.00;101059.00;4978193;28;20042;-81
2022/05/12 00:35:08;;;;;;;5.25;2.20;;;;;;;14.14;100.00;101058.84;4996341;28;20072;-80
2022/05/12 00:37:34;;;;;;;15.45;2.00;;;;;;;14.03;100.00;101067.19;4968068;28;20517;-79
2022/05/12 00:39:59;;;;;;;5.60;1.75;;;;;;;14.05;100.00;101064.31;4946758;28;20035;-78
2022/05/12 00:42:24;;;;;;;7.82;1.60;;;;;;;13.92;100.00;101073.69;4985659;28;20070;-79
2022/05/12 00:44:51;;;;;;;9.63;1.85;;;;;;;13.90;100.00;101063.81;4995198;28;20064;-80
2022/05/12 00:47:16;;;;;;;9.23;1.80;;;;;;;13.88;100.00;101077.72;4996497;28;20541;-78
2022/05/12 00:49:43;;;;;;;11.00;2.05;;;;;;;13.90;100.00;101080.34;4950178;28;20070;-81
2022/05/12 00:52:13;;;;;;;11.55;2.47;;;;;;;13.84;100.00;101069.84;4996502;28;20105;-79
2022/05/12 00:54:49;;;;;;;10.85;2.05;;;;;;;13.81;100.00;101093.03;4998663;28;20076;-79
2022/05/12 00:57:24;;;;;;;7.30;1.80;;;;;;;13.82;100.00;101082.91;4979565;28;20382;-79
2022/05/12 00:59:50;;;;;;;6.22;1.83;;;;;;;13.75;100.00;101086.19;4972311;28;20061;-78
2022/05/12 01:02:19;;;;;;;12.75;2.00;;;;;;;13.75;100.00;101096.34;4979011;28;20034;-80
2022/05/12 01:04:47;;;;;;;10.18;1.70;;;;;;;13.70;100.00;101090.38;4995992;28;20034;-79
2022/05/12 01:07:13;;;;;;;7.13;1.75;;;;;;;13.52;100.00;101088.22;4969326;28;20065;-79
2022/05/12 01:09:41;;;;;;;9.77;1.73;;;;;;;13.56;100.00;101097.06;4986819;28;20119;-79
2022/05/12 01:12:07;;;;;;;12.55;1.60;;;;;;;13.44;100.00;101099.03;4993298;28;20049;-79
2022/05/12 01:14:32;;;;;;;19.10;2.00;;;;;;;13.41;100.00;101102.94;4985419;28;20051;-80
2022/05/12 01:17:02;;;;;;;10.90;2.00;;;;;;;13.42;100.00;101110.16;4995676;28;20490;-80
2022/05/12 01:19:35;;;;;;;12.55;2.42;;;;;;;13.36;100.00;101113.47;4998729;28;20093;-80
2022/05/12 01:22:03;;;;;;;8.48;1.80;;;;;;;13.35;100.00;101117.22;5004711;28;20031;-81
2022/05/12 01:24:35;;;;;;;6.95;1.50;;;;;;;13.28;100.00;101107.75;4979681;28;20497;-81
2022/05/12 01:27:19;;;;;;;4.65;1.73;;;;;;;13.32;100.00;101109.22;4981048;28;20062;-80
2022/05/12 01:29:48;;;;;;;;;;;;;;;13.33;100.00;101115.59;4980395;28;20449;-79
2022/05/12 01:32:14;;;;;;;10.40;1.70;;;;;;;13.37;100.00;101119.84;4992508;28;20328;-79
2022/05/12 01:34:40;;;;;;;7.72;1.60;;;;;;;13.17;100.00;101122.41;4996885;28;20031;-80
2022/05/12 01:37:06;;;;;;;12.85;1.88;;;;;;;13.15;100.00;101124.41;4962916;28;20037;-81
2022/05/12 01:39:35;;;;;;;8.35;1.63;;;;;;;13.16;100.00;101139.88;5013680;28;20041;-79
2022/05/12 01:42:02;;;;;;;7.88;1.50;;;;;;;13.10;100.00;101142.28;4981219;28;20042;-79
2022/05/12 01:44:28;;;;;;;6.95;1.98;;;;;;;13.20;100.00;101148.78;4999420;28;20034;-80
2022/05/12 01:46:54;;;;;;;7.18;1.80;;;;;;;13.11;100.00;101147.66;4997911;28;20057;-78
2022/05/12 01:49:20;;;;;;;7.68;1.60;;;;;;;13.19;100.00;101152.50;4996905;28;20395;-78
2022/05/12 01:51:45;;;;;;;12.50;1.77;;;;;;;13.06;100.00;101142.56;4996631;28;20034;-78
2022/05/12 01:54:11;;;;;;;7.57;1.52;;;;;;;12.98;100.00;101153.31;4998821;28;20045;-79
2022/05/12 01:56:36;;;;;;;9.32;2.05;;;;;;;13.03;100.00;101151.06;4982250;28;20194;-78
2022/05/12 01:59:02;;;;;;;7.13;1.70;;;;;;;12.91;100.00;101162.25;4971471;28;20040;-79
2022/05/12 02:01:27;;;;;;;9.80;1.50;;;;;;;12.84;100.00;101160.00;4996144;28;20117;-79
2022/05/12 02:03:53;;;;;;;7.50;2.15;;;;;;;12.80;100.00;101158.50;4970990;28;20120;-80
2022/05/12 02:06:18;;;;;;;10.70;1.92;;;;;;;12.84;100.00;101164.63;4943719;28;20125;-80
2022/05/12 02:08:44;;;;;;;8.32;1.88;;;;;;;12.80;100.00;101168.63;4977508;28;20050;-80
2022/05/12 02:11:09;;;;;;;9.63;1.80;;;;;;;12.80;100.00;101168.63;4949081;28;20033;-80
2022/05/12 02:13:35;;;;;;;7.25;1.90;;;;;;;12.71;100.00;101183.13;4997473;28;20062;-79
2022/05/12 02:16:01;;;;;;;7.25;1.85;;;;;;;12.77;100.00;101193.59;4996649;28;20042;-79
2022/05/12 02:18:28;;;;;;;10.00;1.90;;;;;;;12.65;100.00;101182.63;4963762;28;20030;-79
2022/05/12 02:20:54;;;;;;;4.15;1.65;;;;;;;12.72;100.00;101190.38;4994227;28;20156;-80
2022/05/12 02:23:20;;;;;;;13.35;2.97;;;;;;;12.69;100.00;101197.88;4952953;28;20487;-79
2022/05/12 02:25:45;;;;;;;6.50;1.90;;;;;;;12.71;100.00;101196.84;4979831;28;20038;-79
2022/05/12 02:28:11;;;;;;;4.32;1.70;;;;;;;12.68;100.00;101201.59;5012732;28;20018;-80
2022/05/12 02:30:37;;;;;;;6.68;1.77;;;;;;;12.71;100.00;101200.50;4993873;28;20129;-79
2022/05/12 02:33:03;;;;;;;10.75;2.20;;;;;;;12.69;100.00;101210.72;4974488;28;20037;-78
2022/05/12 02:35:30;;;;;;;7.28;1.95;;;;;;;12.61;100.00;101211.38;4978581;28;20042;-81
2022/05/12 02:37:56;;;;;;;5.68;1.70;;;;;;;12.56;100.00;101207.25;4995392;28;20054;-80
2022/05/12 02:40:25;;;;;;;9.93;2.00;;;;;;;12.47;100.00;101207.00;5012108;28;20481;-80
2022/05/12 02:42:51;;;;;;;9.45;1.98;;;;;;;12.50;100.00;101201.25;4995379;28;20034;-79
2022/05/12 02:45:17;;;;;;;10.90;2.13;;;;;;;12.47;100.00;101214.38;4979470;28;20395;-80
2022/05/12 02:47:43;;;;;;;13.15;2.22;;;;;;;12.50;100.00;101212.25;4985919;28;20402;-79
2022/05/12 02:50:16;;;;;;;11.15;2.17;;;;;;;12.54;100.00;101229.34;5001445;28;20068;-79
2022/05/12 02:52:42;;;;;;;6.60;2.53;;;;;;;12.36;100.00;101226.22;4987105;28;20522;-79
2022/05/12 02:55:09;;;;;;;14.13;1.85;;;;;;;12.18;100.00;101230.44;4978969;28;20785;-79
2022/05/12 02:57:34;;;;;;;11.85;2.63;;;;;;;12.11;100.00;101227.31;4989115;28;20035;-78
2022/05/12 03:00:00;;;;;;;15.00;2.90;;;;;;;12.17;100.00;101229.59;4990188;28;20385;-79
2022/05/12 03:02:26;;;;;;;7.80;2.60;;;;;;;12.19;100.00;101240.44;4989706;28;20045;-79
2022/05/12 03:04:51;;;;;;;13.43;2.95;;;;;;;12.03;100.00;101230.66;4960984;28;20045;-79
2022/05/12 03:07:17;;;;;;;10.40;2.72;;;;;;;11.99;100.00;101231.06;4994797;28;20105;-79
2022/05/12 03:09:43;;;;;;;10.20;3.00;;;;;;;12.04;100.00;101231.56;4979680;28;20077;-78
2022/05/12 03:12:09;;;;;;;10.07;3.05;;;;;;;12.01;100.00;101224.44;4992527;28;20038;-79
2022/05/12 03:14:34;;;;;;;16.05;3.22;;;;;;;11.89;100.00;101233.63;4958596;28;20042;-78
2022/05/12 03:17:00;;;;;;;13.02;2.97;;;;;;;11.82;100.00;101237.81;4995670;28;20043;-79
2022/05/12 03:19:25;;;;;;;10.30;3.20;;;;;;;11.79;100.00;101236.22;4991831;28;20043;-79
2022/05/12 03:21:51;;;;;;;12.57;2.80;;;;;;;11.72;100.00;101249.53;4997041;28;20045;-80
2022/05/12 03:24:18;;;;;;;8.95;2.67;;;;;;;11.59;100.00;101248.69;4934586;28;20055;-79
2022/05/12 03:26:44;;;;;;;8.85;2.20;;;;;;;11.61;100.00;101252.22;4996746;28;20557;-80
2022/05/12 03:29:10;;;;;;;8.43;2.40;;;;;;;11.59;100.00;101248.69;4994102;28;20022;-79
2022/05/12 03:31:36;;;;;;;6.35;2.08;;;;;;;11.59;100.00;101244.13;4995959;28;20045;-79
2022/05/12 03:34:02;;;;;;;8.13;2.17;;;;;;;11.54;100.00;101235.38;4955666;28;20034;-79
2022/05/12 03:36:27;;;;;;;14.50;2.60;;;;;;;11.53;100.00;101252.81;4966203;28;20038;-80
2022/05/12 03:38:53;;;;;;;15.25;2.80;;;;;;;11.55;100.00;101256.28;4979993;28;20509;-79
2022/05/12 03:41:19;;;;;;;9.95;2.67;;;;;;;11.63;100.00;101249.38;4979097;28;20096;-79
2022/05/12 03:46:31;;;;;;;10.20;2.38;;;;;;;11.58;100.00;101258.81;4995508;28;20387;-78
2022/05/12 03:48:59;;;;;;;13.98;3.28;;;;;;;11.57;100.00;101276.25;4978264;28;20031;-79
2022/05/12 03:51:25;;;;;;;13.88;3.25;;;;;;;11.47;100.00;101274.34;4995362;28;20039;-79
2022/05/12 03:53:51;;;;;;;14.25;3.65;;;;;;;11.57;100.00;101280.88;5007990;28;20030;-79
2022/05/12 03:56:17;;;;;;;13.48;3.13;;;;;;;11.56;100.00;101282.75;4974090;28;20101;-78
2022/05/12 03:58:43;;;;;;;16.10;3.72;;;;;;;11.45;100.00;101285.44;4988562;28;20113;-80
2022/05/12 04:01:09;;;;;;;13.52;4.00;;;;;;;11.44;100.00;101291.03;4992442;28;20038;-81
2022/05/12 04:03:34;;;;;;;11.25;3.25;;;;;;;11.48;100.00;101285.19;4977715;28;20035;-79
2022/05/12 04:06:01;;;;;;;13.13;3.30;;;;;;;11.51;100.00;101295.94;4974990;28;20113;-79
2022/05/12 04:08:29;;;;;;;10.55;3.55;;;;;;;11.45;100.00;101292.78;5010868;28;20026;-80
2022/05/12 04:10:55;;;;;;;16.83;4.05;;;;;;;11.57;100.00;101306.41;4960590;28;20045;-78
2022/05/12 04:13:20;;;;;;;17.98;4.03;;;;;;;11.57;100.00;101302.81;4961935;28;20031;-79
2022/05/12 04:15:46;;;;;;;12.15;3.72;;;;;;;11.73;100.00;101297.03;4995900;28;20092;-78
2022/05/12 04:18:12;;;;;;;15.82;3.90;;;;;;;11.82;100.00;101309.16;4985611;28;20026;-80
2022/05/12 04:20:38;;;;;;;16.10;4.50;;;;;;;11.59;100.00;101309.94;4995849;28;20049;-79
2022/05/12 04:23:05;;;;;;;18.17;5.07;;;;;;;11.73;100.00;101310.75;4989069;28;20467;-78
2022/05/12 04:25:30;;;;;;;18.15;4.05;;;;;;;11.68;100.00;101311.09;4993109;28;20054;-78
2022/05/12 04:27:57;;;;;;;13.50;4.63;;;;;;;11.60;100.00;101319.03;4997420;28;20034;-78
2022/05/12 04:30:25;;;;;;;22.10;5.25;;;;;;;11.72;100.00;101317.22;4994884;28;20054;-79
2022/05/12 04:32:52;;;;;;;25.63;4.93;;;;;;;11.74;100.00;101320.72;4959622;28;20046;-78
2022/05/12 04:35:18;;;;;;;20.48;5.00;;;;;;;11.73;100.00;101325.31;4978749;28;20035;-78
2022/05/12 04:37:47;;;;;;;24.63;5.60;;;;;;;11.79;100.00;101337.72;4995068;28;20043;-79
2022/05/12 04:40:19;;;;;;;22.77;6.05;;;;;;;11.81;100.00;101338.47;4974762;28;20030;-77
2022/05/12 04:42:46;;;;;;;18.55;5.32;;;;;;;11.82;100.00;101350.31;4979420;28;20493;-77
2022/05/12 04:45:12;;;;;;;15.88;6.10;;;;;;;11.87;100.00;101354.47;5007788;28;20034;-78
2022/05/12 04:47:40;;;;;;;25.75;6.28;;;;;;;11.82;100.00;101342.94;4994092;28;20512;-79
2022/05/12 04:50:08;;;;;;;19.88;6.60;;;;;;;11.91;100.00;101353.25;4994549;28;20042;-78
2022/05/12 04:52:34;;;;;;;18.10;6.10;;;;;;;11.98;100.00;101355.53;4994406;28;20044;-78
2022/05/12 04:54:59;;;;;;;16.98;5.78;;;;;;;12.03;100.00;101356.06;4996589;28;20117;-77
2022/05/12 04:57:25;;;;;;;23.02;7.03;;;;;;;12.00;100.00;101359.03;4977171;28;20116;-79
2022/05/12 04:59:55;;;;;;;21.40;6.10;;;;;;;12.05;100.00;101359.53;4974079;28;20045;-77
2022/05/12 05:02:21;;;;;;;20.23;6.93;;;;;;;11.96;100.00;101358.38;4992567;28;20062;-76
2022/05/12 05:04:48;;;;;;;22.60;7.05;;;;;;;12.16;100.00;101361.47;5012213;28;20026;-77
2022/05/12 05:07:14;;;;;;;24.30;7.68;;;;;;;12.01;100.00;101358.03;4998296;28;20038;-77
2022/05/12 05:09:41;;;;;;;15.80;7.43;;;;;;;12.13;100.00;101368.94;4997681;28;20049;-78
2022/05/12 05:12:06;;;;;;;20.95;8.15;;;;;;;12.27;100.00;101364.25;4995434;28;20046;-77
2022/05/12 05:14:32;;;;;;;27.88;8.38;;;;;;;12.21;100.00;101382.06;4970048;28;20089;-77
2022/05/12 05:16:57;;;;;;;23.13;9.50;;;;;;;12.23;100.00;101379.19;4992344;28;20068;-78
2022/05/12 05:19:24;;;;;;;58.95;26.73;;;;;;;12.31;100.00;101383.13;4997835;28;20518;-77
2022/05/12 05:21:50;;;;;;;31.70;9.73;;;;;;;12.50;100.00;101387.16;4998184;28;20055;-78
2022/05/12 05:24:15;;;;;;;35.13;13.07;;;;;;;12.73;100.00;101396.31;4994719;28;20067;-77
2022/05/12 05:26:41;;;;;;;31.13;10.48;;;;;;;12.84;100.00;101403.72;4971424;28;20053;-79
2022/05/12 05:29:07;;;;;;;28.42;11.90;;;;;;;13.07;100.00;101401.88;4995839;28;20466;-78
2022/05/12 05:31:36;;;;;;;33.72;12.35;;;;;;;13.15;100.00;101399.38;4991424;28;20039;-79
2022/05/12 05:34:02;;;;;;;37.25;13.30;;;;;;;13.13;100.00;101395.84;4996593;28;20425;-77
2022/05/12 05:36:27;;;;;;;29.58;13.10;;;;;;;13.09;100.00;101402.59;4999937;28;20030;-78
2022/05/12 05:38:52;;;;;;;33.47;13.45;;;;;;;13.32;100.00;101405.38;4997433;28;20045;-78
2022/05/12 05:41:18;;;;;;;27.35;11.07;;;;;;;13.21;100.00;101407.09;4959993;28;20034;-78
2022/05/12 05:43:44;;;;;;;32.17;13.00;;;;;;;13.64;100.00;101415.59;4999692;28;20044;-76
2022/05/12 05:46:10;;;;;;;28.35;13.93;;;;;;;13.62;100.00;101418.47;4996573;28;20037;-76
2022/05/12 05:48:36;;;;;;;29.60;13.48;;;;;;;13.90;100.00;101417.03;5010335;28;20038;-77
2022/05/12 05:53:45;;;;;;;34.30;14.63;;;;;;;14.72;100.00;101434.88;4981759;28;20165;-77
2022/05/12 05:56:14;;;;;;;33.97;14.63;;;;;;;14.56;100.00;101445.47;4990046;28;20038;-78
2022/05/12 05:58:42;;;;;;;31.70;14.20;;;;;;;14.58;100.00;101446.22;5004053;28;20119;-79
2022/05/12 06:01:07;;;;;;;36.97;14.40;;;;;;;14.94;100.00;101450.41;4995371;28;20034;-77
2022/05/12 06:03:33;;;;;;;37.05;13.93;;;;;;;14.98;100.00;101454.63;4957648;28;20054;-78
2022/05/12 06:05:58;;;;;;;33.03;15.50;;;;;;;15.27;100.00;101462.22;4994591;28;20034;-77
2022/05/12 06:08:24;;;;;;;38.72;16.17;;;;;;;15.12;100.00;101458.94;5004959;28;20034;-77
2022/05/12 06:10:53;;;;;;;34.33;16.63;;;;;;;14.63;100.00;101460.50;4982922;28;20073;-76
2022/05/12 06:13:18;;;;;;;35.38;16.13;;;;;;;15.26;100.00;101460.47;4970619;28;20034;-77
2022/05/12 06:15:44;;;;;;;43.58;16.95;;;;;;;15.48;100.00;101464.94;4985157;28;20057;-77
2022/05/12 06:18:15;;;;;;;36.25;16.88;;;;;;;15.61;100.00;101465.56;4992910;28;20124;-77
2022/05/12 06:20:43;;;;;;;37.45;16.55;;;;;;;15.82;100.00;101470.16;4992660;28;20034;-78
2022/05/12 06:23:10;;;;;;;42.45;17.27;;;;;;;15.89;100.00;101479.66;4990169;28;20042;-78
2022/05/12 06:25:36;;;;;;;39.33;16.98;;;;;;;16.21;100.00;101470.25;4993323;28;20125;-78
2022/05/12 06:28:03;;;;;;;44.53;17.92;;;;;;;16.27;100.00;101477.13;4969389;28;20482;-78
2022/05/12 06:30:29;;;;;;;42.08;17.42;;;;;;;16.12;100.00;101485.81;4994366;28;20084;-80
2022/05/12 06:32:56;;;;;;;34.30;17.95;;;;;;;16.32;100.00;101483.94;4977080;28;20050;-77
2022/05/12 06:35:23;;;;;;;38.88;19.67;;;;;;;15.92;100.00;101489.53;4995821;28;20034;-78
2022/05/12 06:37:50;;;;;;;39.70;18.50;;;;;;;16.09;100.00;101499.91;4995228;28;20065;-79
2022/05/12 06:40:17;;;;;;;38.72;17.75;;;;;;;16.45;100.00;101486.44;4995706;28;20046;-79
2022/05/12 06:42:43;;;;;;;33.55;17.20;;;;;;;15.60;100.00;101491.41;4977136;28;20042;-78
2022/05/12 06:45:12;;;;;;;34.20;17.40;;;;;;;15.41;100.00;101502.34;4989158;28;20034;-78
2022/05/12 06:47:38;;;;;;;36.22;17.52;;;;;;;15.52;100.00;101498.66;4973463;28;20052;-77
2022/05/12 06:50:04;;;;;;;38.55;17.23;;;;;;;15.09;100.00;101503.34;4986863;28;20038;-78
2022/05/12 06:52:31;;;;;;;39.45;16.90;;;;;;;15.66;100.00;101495.53;4992687;28;20051;-80
2022/05/12 06:54:57;;;;;;;32.72;16.45;;;;;;;15.47;100.00;101506.47;4970488;28;20034;-79
2022/05/12 06:57:27;;;;;;;32.55;16.23;;;;;;;16.13;100.00;101515.19;4999868;28;20042;-78
2022/05/12 06:59:53;;;;;;;35.95;15.55;;;;;;;15.94;100.00;101502.19;5014749;28;20061;-79
2022/05/12 07:02:19;;;;;;;29.33;15.95;;;;;;;15.39;100.00;101504.41;5014011;28;20612;-78
2022/05/12 07:04:46;;;;;;;34.78;17.13;;;;;;;15.56;100.00;101512.03;4966592;28;20117;-79
2022/05/12 07:07:13;;;;;;;35.70;17.77;;;;;;;16.30;100.00;101521.91;4978996;28;20031;-79
2022/05/12 07:09:39;;;;;;;28.92;15.73;;;;;;;17.36;100.00;101507.34;4991736;28;20077;-77
2022/05/12 07:12:05;;;;;;;34.92;17.23;;;;;;;17.33;100.00;101519.59;4997299;28;20042;-78
2022/05/12 07:14:31;;;;;;;36.72;16.83;;;;;;;16.72;100.00;101518.91;4982924;28;20042;-77
2022/05/12 07:16:57;;;;;;;26.38;16.33;;;;;;;16.89;100.00;101519.22;4980322;28;20030;-78
2022/05/12 07:19:23;;;;;;;33.30;16.75;;;;;;;17.26;100.00;101518.44;4981679;28;20448;-79
2022/05/12 07:27:18;;;;;;;31.00;16.38;;;;;;;15.96;100.00;101530.53;4997661;28;20035;-79
2022/05/12 07:29:43;;;;;;;30.02;16.25;;;;;;;15.82;100.00;101525.38;4999966;28;20034;-77
2022/05/12 07:32:09;;;;;;;29.55;16.95;;;;;;;15.57;100.00;101532.22;4952390;28;20395;-79
2022/05/12 07:34:35;;;;;;;26.90;15.93;;;;;;;17.17;100.00;101533.19;4960726;28;20093;-77
2022/05/12 07:37:01;;;;;;;37.08;18.05;;;;;;;17.93;100.00;101537.78;4988345;28;20135;-80
2022/05/12 07:39:29;;;;;;;26.42;16.20;;;;;;;18.53;96.86;101540.91;4982016;28;20502;-78
2022/05/12 07:41:56;;;;;;;30.17;15.52;;;;;;;18.09;97.36;101542.66;4945518;28;20066;-78
2022/05/12 07:44:31;;;;;;;24.85;15.65;;;;;;;18.09;96.10;101542.66;4982441;28;20057;-77
2022/05/12 07:47:05;;;;;;;32.72;16.58;;;;;;;18.24;94.42;101541.09;5011686;28;20034;-78
2022/05/12 07:49:35;;;;;;;24.65;13.90;;;;;;;18.68;90.95;101532.06;5012024;28;20026;-79
2022/05/12 07:52:01;;;;;;;25.27;14.70;;;;;;;19.01;91.80;101540.72;4997833;28;20042;-79
2022/05/12 07:54:28;;;;;;;28.27;15.38;;;;;;;18.53;88.74;101534.50;4997715;28;20537;-79
2022/05/12 07:56:54;;;;;;;24.77;15.10;;;;;;;18.80;87.03;101536.31;4980939;28;20046;-78
2022/05/12 07:59:20;;;;;;;26.10;15.02;;;;;;;18.68;87.47;101532.91;4998799;28;20045;-79
2022/05/12 08:01:46;;;;;;;27.88;15.23;;;;;;;19.60;83.96;101546.53;4998173;28;20068;-80
2022/05/12 08:04:12;;;;;;;22.45;15.38;;;;;;;20.18;79.55;101558.84;4977545;28;20530;-78
2022/05/12 08:06:42;;;;;;;27.83;14.35;;;;;;;20.49;79.56;101545.22;4997495;28;20088;-79
2022/05/12 08:09:07;;;;;;;30.13;14.63;;;;;;;20.18;78.67;101551.41;4980783;28;20038;-79
2022/05/12 08:11:33;;;;;;;24.52;14.68;;;;;;;20.20;76.65;101557.66;4997767;28;20474;-79
2022/05/12 08:13:58;;;;;;;28.17;13.93;;;;;;;20.54;75.43;101556.72;4974533;28;20098;-78
2022/05/12 08:16:24;;;;;;;21.52;10.60;;;;;;;20.13;69.92;101556.56;4964389;28;20137;-79
2022/05/12 08:18:50;;;;;;;21.48;12.50;;;;;;;19.52;72.49;101565.94;4996863;28;20027;-80
2022/05/12 08:21:23;;;;;;;18.77;11.35;;;;;;;19.14;72.32;101556.97;5006444;28;20034;-77
2022/05/12 08:23:49;;;;;;;24.08;14.00;;;;;;;18.19;78.00;101554.56;4961361;28;20060;-79
2022/05/12 08:26:14;;;;;;;20.45;13.55;;;;;;;18.32;77.73;101565.28;4963267;28;20035;-78
2022/05/12 08:28:40;;;;;;;26.83;14.93;;;;;;;18.28;78.44;101566.63;4985300;28;20038;-78
2022/05/12 08:31:06;;;;;;;28.92;17.27;;;;;;;19.17;78.12;101564.94;4992084;28;20038;-79
2022/05/12 08:33:33;;;;;;;28.75;16.70;;;;;;;19.33;75.89;101564.22;5003411;28;20038;-78
2022/05/12 08:35:59;;;;;;;33.38;17.67;;;;;;;19.43;76.29;101564.97;5001188;28;20034;-78
2022/05/12 08:38:25;;;;;;;28.70;16.08;;;;;;;19.49;73.98;101566.25;4999815;28;20058;-79
2022/05/12 08:41:03;;;;;;;31.58;16.25;;;;;;;18.75;75.92;101566.44;5001376;28;20034;-78
2022/05/12 08:43:51;;;;;;;23.85;14.25;;;;;;;19.56;73.31;101564.56;4985781;28;20038;-78
2022/05/12 08:46:40;;;;;;;25.75;16.05;;;;;;;19.83;72.78;101558.88;4965796;28;20038;-78
2022/05/12 08:49:23;;;;;;;22.42;15.25;;;;;;;19.88;70.72;101563.94;4982639;28;20041;-79
2022/05/12 08:51:54;;;;;;;31.23;15.20;;;;;;;19.36;73.98;101558.34;4998851;28;20576;-79
2022/05/12 08:54:23;;;;;;;24.48;13.68;;;;;;;19.06;73.54;101568.88;5002307;28;20505;-79
2022/05/12 08:56:59;;;;;;;25.67;13.10;;;;;;;20.06;68.28;101574.97;5002082;28;20037;-78
2022/05/12 08:59:24;;;;;;;32.80;15.30;;;;;;;19.26;70.45;101564.84;5002487;28;20081;-80
2022/05/12 09:01:58;;;;;;;27.33;14.95;;;;;;;18.95;72.83;101567.19;5002716;28;20034;-79
2022/05/12 09:04:45;;;;;;;25.42;15.10;;;;;;;18.87;72.87;101568.00;4999741;28;20048;-77
2022/05/12 09:07:22;;;;;;;24.83;15.88;;;;;;;18.86;71.73;101562.63;5000298;28;20510;-78
2022/05/12 09:09:55;;;;;;;22.65;14.30;;;;;;;18.66;72.23;101578.47;5002099;28;20451;-78
2022/05/12 09:12:35;;;;;;;27.15;16.52;;;;;;;18.92;73.15;101571.19;5001723;28;20085;-77
2022/05/12 09:15:12;;;;;;;31.02;17.02;;;;;;;19.22;72.49;101577.34;4997602;28;20038;-78
2022/05/12 09:17:45;;;;;;;29.77;16.90;;;;;;;19.40;69.05;101584.78;4980781;28;20061;-79
2022/05/12 09:20:12;;;;;;;27.80;15.13;;;;;;;19.83;68.75;101583.00;4982572;28;20058;-78
2022/05/12 09:22:39;;;;;;;32.97;16.45;;;;;;;19.50;68.75;101573.56;4982867;28;20394;-77
2022/05/12 09:25:06;;;;;;;30.48;17.52;;;;;;;19.32;70.27;101580.03;5000683;28;20114;-78
2022/05/12 09:27:35;;;;;;;32.58;19.63;;;;;;;19.52;70.82;101580.69;4997012;28;20034;-80
2022/05/12 09:30:04;;;;;;;32.05;16.85;;;;;;;20.35;66.53;101582.06;4980767;28;20050;-79
2022/05/12 09:32:32;;;;;;;31.38;18.77;;;;;;;20.48;67.35;101581.56;4980879;28;20094;-77
2022/05/12 09:35:09;;;;;;;33.08;17.20;;;;;;;19.95;68.22;101578.91;4988076;28;20054;-79
2022/05/12 09:37:40;;;;;;;23.35;14.35;;;;;;;19.37;66.92;101576.75;5001053;28;20132;-79
2022/05/12 09:40:29;;;;;;;24.33;13.93;;;;;;;19.72;65.62;101577.69;5004318;28;20045;-78
2022/05/12 09:42:57;;;;;;;23.65;12.73;;;;;;;19.31;66.52;101578.25;4998998;28;20030;-79
2022/05/12 09:45:33;;;;;;;24.55;13.10;;;;;;;20.23;65.09;101577.81;5000170;28;20117;-79
2022/05/12 09:48:51;;;;;;;24.98;13.30;;;;;;;20.76;61.11;101573.84;4995298;28;20053;-80
2022/05/12 09:51:25;;;;;;;29.08;13.43;;;;;;;21.48;59.91;101564.88;4938357;28;20050;-79
2022/05/12 09:53:53;;;;;;;31.30;14.43;;;;;;;21.40;55.40;101564.84;4979383;28;20042;-78
2022/05/12 09:56:31;;;;;;;21.17;12.50;;;;;;;21.67;55.55;101555.25;4980742;28;20037;-77
2022/05/12 09:59:17;;;;;;;23.05;11.90;;;;;;;21.84;55.25;101568.09;4971723;28;20031;-79
2022/05/12 10:02:10;;;;;;;26.77;10.65;;;;;;;20.17;56.12;101574.69;4970590;28;20533;-79
2022/05/12 10:10:15;;;;;;;19.50;10.02;;;;;;;20.44;55.42;101567.13;4980602;28;20038;-79
2022/05/12 10:12:49;;;;;;;17.55;10.27;;;;;;;20.09;55.55;101559.88;4995799;28;20034;-78
2022/05/12 10:15:25;;;;;;;15.40;5.82;;;;;;;19.51;52.48;101564.19;4996408;28;20035;-78
2022/05/12 10:17:58;;;;;;;9.98;5.60;;;;;;;19.28;53.01;101565.59;4988459;28;20034;-79
2022/05/12 10:20:26;;;;;;;9.95;4.88;;;;;;;19.16;53.12;101569.66;4998620;28;20041;-79
2022/05/12 10:22:55;;;;;;;12.40;6.15;;;;;;;19.05;53.73;101568.00;4998929;28;20038;-79
2022/05/12 10:25:57;;;;;;;14.32;6.55;;;;;;;19.59;53.53;101567.88;4963916;28;20049;-79
2022/05/12 10:28:48;;;;;;;23.03;7.63;;;;;;;20.42;52.84;101565.56;4963977;28;20514;-79
2022/05/12 10:31:45;;;;;;;17.33;8.60;;;;;;;20.78;51.86;101565.34;4979580;28;20282;-79
2022/05/12 10:34:48;;;;;;;22.33;8.90;;;;;;;20.17;54.09;101559.91;4974767;28;20042;-79
2022/05/12 10:37:26;;;;;;;19.20;8.82;;;;;;;19.84;54.02;101568.09;4999069;28;20482;-78
2022/05/12 10:40:15;;;;;;;22.30;9.38;;;;;;;20.69;53.12;101559.75;4999688;28;20031;-78
2022/05/12 10:42:58;;;;;;;23.83;10.63;;;;;;;20.33;53.80;101565.53;5000270;28;20038;-79
2022/05/12 10:45:33;;;;;;;23.17;9.80;;;;;;;20.27;53.00;101565.34;4998853;28;20018;-79
2022/05/12 10:48:19;;;;;;;15.60;8.35;;;;;;;21.05;52.39;101567.81;4999481;28;20037;-79
2022/05/12 10:50:45;;;;;;;20.35;9.77;;;;;;;21.68;49.66;101562.56;4981706;28;20517;-79
2022/05/12 10:53:26;;;;;;;26.73;9.82;;;;;;;21.25;49.50;101553.50;4998725;28;20034;-78
2022/05/12 10:56:15;;;;;;;26.58;8.73;;;;;;;21.69;48.30;101560.63;5014876;28;20018;-77
2022/05/12 10:58:55;;;;;;;16.38;7.22;;;;;;;21.91;44.37;101562.69;4995163;28;20528;-78
2022/05/12 11:01:27;;;;;;;16.05;7.97;;;;;;;21.83;45.65;101557.97;4980274;28;20088;-79
2022/05/12 11:04:00;;;;;;;20.33;7.68;;;;;;;21.74;46.43;101547.94;5014134;28;20504;-78
2022/05/12 11:06:33;;;;;;;16.35;6.15;;;;;;;20.86;45.31;101557.00;5000326;28;20042;-79
2022/05/12 11:09:29;;;;;;;12.05;6.32;;;;;;;21.17;46.28;101557.19;4999315;28;20046;-79
2022/05/12 11:12:00;;;;;;;13.07;7.18;;;;;;;21.39;46.91;101558.38;4992265;28;20144;-79
2022/05/12 11:14:40;;;;;;;16.45;9.15;;;;;;;21.16;47.31;101551.78;5012887;28;20045;-79
2022/05/12 11:17:19;;;;;;;20.17;9.40;;;;;;;21.60;47.85;101537.50;4999412;28;20027;-79
2022/05/12 11:19:55;;;;;;;16.55;9.90;;;;;;;21.59;47.56;101536.59;4995149;28;20038;-79
2022/05/12 11:22:37;;;;;;;21.42;11.25;;;;;;;21.21;47.09;101543.78;4997569;28;20076;-79
2022/05/12 11:25:13;;;;;;;20.33;9.95;;;;;;;22.13;48.31;101535.06;4981967;28;20402;-79
2022/05/12 11:27:48;;;;;;;25.42;10.50;;;;;;;22.14;45.21;101537.66;4994720;28;20025;-78
2022/05/12 11:30:22;;;;;;;23.92;9.52;;;;;;;22.23;44.41;101534.84;4980214;28;20077;-80
2022/05/12 11:33:18;;;;;;;15.38;9.10;;;;;;;21.89;44.73;101544.38;4980121;28;20039;-77
2022/05/12 11:35:48;;;;;;;27.73;8.98;;;;;;;21.94;43.90;101533.53;4979154;28;20031;-79